sensor_id;sensor_type;location;lat;lon;timestamp;pressure;altitude;pressure_sealevel;temperature;humidity
74329;BME280;62749;51.982;5.916;2023-11-22T00:00:01;102433.06;;;5.34;100.00
74329;BME280;62749;51.982;5.916;2023-11-22T00:02:32;102434.81;;;5.35;100.00
74329;BME280;62749;51.982;5.916;2023-11-22T00:05:08;102425.16;;;5.27;100.00
74329;BME280;62749;51.982;5.916;2023-11-22T00:07:43;102418.97;;;5.17;100.00
74329;BME280;62749;51.982;5.916;2023-11-22T00:10:41;102413.72;;;5.14;100.00
74329;BME280;62749;51.982;5.916;2023-11-22T00:13:11;102416.31;;;5.09;100.00
74329;BME280;62749;51.982;5.916;2023-11-22T00:15:41;102423.28;;;5.07;100.00
74329;BME280;62749;51.982;5.916;2023-11-22T00:18:13;102422.44;;;5.08;100.00
74329;BME280;62749;51.982;5.916;2023-11-22T00:21:07;102424.22;;;5.14;100.00
74329;BME280;62749;51.982;5.916;2023-11-22T00:23:53;102424.25;;;5.18;100.00
74329;BME280;62749;51.982;5.916;2023-11-22T00:26:29;102436.47;;;5.21;100.00
74329;BME280;62749;51.982;5.916;2023-11-22T00:29:19;102439.13;;;5.22;100.00
74329;BME280;62749;51.982;5.916;2023-11-22T00:32:01;102445.22;;;5.21;100.00
74329;BME280;62749;51.982;5.916;2023-11-22T00:34:35;102449.59;;;5.22;100.00
74329;BME280;62749;51.982;5.916;2023-11-22T00:37:18;102450.44;;;5.18;100.00
74329;BME280;62749;51.982;5.916;2023-11-22T00:39:51;102446.91;;;5.13;100.00
74329;BME280;62749;51.982;5.916;2023-11-22T00:45:35;102446.88;;;5.07;100.00
74329;BME280;62749;51.982;5.916;2023-11-22T00:48:26;102446.00;;;5.08;100.00
74329;BME280;62749;51.982;5.916;2023-11-22T00:51:25;102442.44;;;5.00;100.00
74329;BME280;62749;51.982;5.916;2023-11-22T00:54:24;102452.88;;;4.95;100.00
74329;BME280;62749;51.982;5.916;2023-11-22T01:00:17;102464.19;;;4.91;100.00
74329;BME280;62749;51.982;5.916;2023-11-22T01:02:57;102472.03;;;4.89;100.00
74329;BME280;62749;51.982;5.916;2023-11-22T01:08:40;102461.56;;;4.88;100.00
74329;BME280;62749;51.982;5.916;2023-11-22T01:11:16;102472.03;;;4.89;100.00
74329;BME280;62749;51.982;5.916;2023-11-22T01:17:07;102477.16;;;4.79;100.00
74329;BME280;62749;51.982;5.916;2023-11-22T01:22:56;102492.84;;;4.74;100.00
74329;BME280;62749;51.982;5.916;2023-11-22T01:25:51;102502.50;;;4.78;100.00
74329;BME280;62749;51.982;5.916;2023-11-22T01:28:33;102510.34;;;4.78;100.00
74329;BME280;62749;51.982;5.916;2023-11-22T01:31:06;102512.97;;;4.78;100.00
74329;BME280;62749;51.982;5.916;2023-11-22T01:33:45;102523.44;;;4.78;100.00
74329;BME280;62749;51.982;5.916;2023-11-22T01:39:39;102516.31;;;4.65;100.00
74329;BME280;62749;51.982;5.916;2023-11-22T01:42:28;102529.38;;;4.61;100.00
74329;BME280;62749;51.982;5.916;2023-11-22T01:45:11;102518.00;;;4.58;100.00
74329;BME280;62749;51.982;5.916;2023-11-22T01:47:53;102518.00;;;4.59;100.00
74329;BME280;62749;51.982;5.916;2023-11-22T01:50:36;102525.00;;;4.59;100.00
74329;BME280;62749;51.982;5.916;2023-11-22T01:53:13;102517.19;;;4.65;100.00
74329;BME280;62749;51.982;5.916;2023-11-22T01:55:48;102507.63;;;4.67;100.00
74329;BME280;62749;51.982;5.916;2023-11-22T01:58:28;102525.97;;;4.69;100.00
74329;BME280;62749;51.982;5.916;2023-11-22T02:01:16;102528.63;;;4.75;100.00
74329;BME280;62749;51.982;5.916;2023-11-22T02:03:48;102522.50;;;4.71;100.00
74329;BME280;62749;51.982;5.916;2023-11-22T02:06:40;102519.03;;;4.74;100.00
74329;BME280;62749;51.982;5.916;2023-11-22T02:09:21;102513.75;;;4.68;100.00
74329;BME280;62749;51.982;5.916;2023-11-22T02:15:05;102521.59;;;4.68;100.00
74329;BME280;62749;51.982;5.916;2023-11-22T02:20:58;102520.69;;;4.66;100.00
74329;BME280;62749;51.982;5.916;2023-11-22T02:23:30;102523.22;;;4.58;100.00
74329;BME280;62749;51.982;5.916;2023-11-22T02:26:01;102509.16;;;4.48;100.00
74329;BME280;62749;51.982;5.916;2023-11-22T02:28:37;102531.91;;;4.51;100.00
74329;BME280;62749;51.982;5.916;2023-11-22T02:31:14;102524.00;;;4.49;100.00
74329;BME280;62749;51.982;5.916;2023-11-22T02:36:56;102531.75;;;4.40;100.00
74329;BME280;62749;51.982;5.916;2023-11-22T02:39:45;102530.03;;;4.42;100.00
74329;BME280;62749;51.982;5.916;2023-11-22T02:42:25;102518.69;;;4.40;100.00
74329;BME280;62749;51.982;5.916;2023-11-22T02:45:11;102516.00;;;4.35;100.00
74329;BME280;62749;51.982;5.916;2023-11-22T02:51:15;102519.50;;;4.36;100.00
74329;BME280;62749;51.982;5.916;2023-11-22T02:54:00;102518.59;;;4.34;100.00
74329;BME280;62749;51.982;5.916;2023-11-22T02:56:36;102515.81;;;4.20;100.00
74329;BME280;62749;51.982;5.916;2023-11-22T03:02:33;102524.63;;;4.28;100.00
74329;BME280;62749;51.982;5.916;2023-11-22T03:05:29;102522.00;;;4.26;100.00
74329;BME280;62749;51.982;5.916;2023-11-22T03:08:00;102523.69;;;4.21;100.00
74329;BME280;62749;51.982;5.916;2023-11-22T03:10:30;102532.38;;;4.20;100.00
74329;BME280;62749;51.982;5.916;2023-11-22T03:13:12;102520.97;;;4.12;100.00
74329;BME280;62749;51.982;5.916;2023-11-22T03:15:41;102523.69;;;4.21;100.00
74329;BME280;62749;51.982;5.916;2023-11-22T03:18:18;102522.88;;;4.24;100.00
74329;BME280;62749;51.982;5.916;2023-11-22T03:23:48;102532.44;;;4.23;100.00
74329;BME280;62749;51.982;5.916;2023-11-22T03:26:26;102528.91;;;4.18;100.00
74329;BME280;62749;51.982;5.916;2023-11-22T03:29:01;102526.28;;;4.18;100.00
74329;BME280;62749;51.982;5.916;2023-11-22T03:31:32;102531.41;;;4.10;100.00
74329;BME280;62749;51.982;5.916;2023-11-22T03:34:19;102524.34;;;4.03;100.00
74329;BME280;62749;51.982;5.916;2023-11-22T03:37:08;102539.22;;;4.06;100.00
74329;BME280;62749;51.982;5.916;2023-11-22T03:39:43;102552.28;;;4.06;100.00
74329;BME280;62749;51.982;5.916;2023-11-22T03:42:15;102564.47;;;4.05;100.00
74329;BME280;62749;51.982;5.916;2023-11-22T03:48:21;102595.78;;;3.99;100.00
74329;BME280;62749;51.982;5.916;2023-11-22T03:51:03;102594.94;;;4.02;100.00
74329;BME280;62749;51.982;5.916;2023-11-22T03:53:46;102598.28;;;3.93;100.00
74329;BME280;62749;51.982;5.916;2023-11-22T03:56:24;102589.53;;;3.89;100.00
74329;BME280;62749;51.982;5.916;2023-11-22T04:01:55;102613.91;;;3.88;100.00
74329;BME280;62749;51.982;5.916;2023-11-22T04:04:30;102612.22;;;3.90;100.00
74329;BME280;62749;51.982;5.916;2023-11-22T04:10:17;102626.94;;;3.83;100.00
74329;BME280;62749;51.982;5.916;2023-11-22T04:15:41;102625.22;;;3.86;100.00
74329;BME280;62749;51.982;5.916;2023-11-22T04:21:25;102639.09;;;3.80;100.00
74329;BME280;62749;51.982;5.916;2023-11-22T04:24:07;102634.59;;;3.73;100.00
74329;BME280;62749;51.982;5.916;2023-11-22T04:33:12;102630.34;;;3.81;100.00
74329;BME280;62749;51.982;5.916;2023-11-22T04:36:06;102634.78;;;3.83;100.00
74329;BME280;62749;51.982;5.916;2023-11-22T04:39:06;102632.13;;;3.82;100.00
74329;BME280;62749;51.982;5.916;2023-11-22T04:41:41;102627.78;;;3.82;100.00
74329;BME280;62749;51.982;5.916;2023-11-22T04:44:12;102631.31;;;3.84;100.00
74329;BME280;62749;51.982;5.916;2023-11-22T04:46:50;102637.34;;;3.82;100.00
74329;BME280;62749;51.982;5.916;2023-11-22T04:49:23;102640.81;;;3.79;100.00
74329;BME280;62749;51.982;5.916;2023-11-22T04:52:02;102640.81;;;3.81;100.00
74329;BME280;62749;51.982;5.916;2023-11-22T04:54:52;102643.47;;;3.84;100.00
74329;BME280;62749;51.982;5.916;2023-11-22T05:00:56;102640.91;;;3.86;100.00
74329;BME280;62749;51.982;5.916;2023-11-22T05:03:28;102649.63;;;3.88;100.00
74329;BME280;62749;51.982;5.916;2023-11-22T05:05:57;102654.00;;;3.87;100.00
74329;BME280;62749;51.982;5.916;2023-11-22T05:11:34;102654.72;;;3.78;100.00
74329;BME280;62749;51.982;5.916;2023-11-22T05:14:14;102651.84;;;3.61;100.00
74329;BME280;62749;51.982;5.916;2023-11-22T05:16:52;102648.38;;;3.64;100.00
74329;BME280;62749;51.982;5.916;2023-11-22T05:22:29;102646.50;;;3.55;100.00
74329;BME280;62749;51.982;5.916;2023-11-22T05:25:00;102643.56;;;3.36;100.00
74329;BME280;62749;51.982;5.916;2023-11-22T05:27:35;102641.69;;;3.29;100.00
74329;BME280;62749;51.982;5.916;2023-11-22T05:30:21;102630.38;;;3.27;100.00
74329;BME280;62749;51.982;5.916;2023-11-22T05:32:57;102622.63;;;3.33;100.00
74329;BME280;62749;51.982;5.916;2023-11-22T05:35:36;102632.38;;;3.44;100.00
74329;BME280;62749;51.982;5.916;2023-11-22T05:41:22;102632.44;;;3.47;100.00
74329;BME280;62749;51.982;5.916;2023-11-22T05:44:00;102642.09;;;3.52;100.00
74329;BME280;62749;51.982;5.916;2023-11-22T05:46:38;102654.16;;;3.44;100.00
74329;BME280;62749;51.982;5.916;2023-11-22T05:49:20;102645.28;;;3.36;100.00
74329;BME280;62749;51.982;5.916;2023-11-22T05:51:57;102649.63;;;3.34;100.00
74329;BME280;62749;51.982;5.916;2023-11-22T05:54:53;102654.94;;;3.38;100.00
74329;BME280;62749;51.982;5.916;2023-11-22T05:57:37;102652.19;;;3.31;100.00
74329;BME280;62749;51.982;5.916;2023-11-22T06:00:11;102654.94;;;3.38;100.00
74329;BME280;62749;51.982;5.916;2023-11-22T06:02:51;102665.25;;;3.32;100.00
74329;BME280;62749;51.982;5.916;2023-11-22T06:05:22;102674.09;;;3.37;100.00
74329;BME280;62749;51.982;5.916;2023-11-22T06:11:05;102661.81;;;3.33;100.00
74329;BME280;62749;51.982;5.916;2023-11-22T06:13:43;102680.78;;;3.23;100.00
74329;BME280;62749;51.982;5.916;2023-11-22T06:16:27;102673.00;;;3.26;100.00
74329;BME280;62749;51.982;5.916;2023-11-22T06:18:58;102674.94;;;3.36;100.00
74329;BME280;62749;51.982;5.916;2023-11-22T06:24:54;102682.06;;;3.47;100.00
74329;BME280;62749;51.982;5.916;2023-11-22T06:27:49;102685.69;;;3.53;100.00
74329;BME280;62749;51.982;5.916;2023-11-22T06:30:41;102685.81;;;3.61;100.00
74329;BME280;62749;51.982;5.916;2023-11-22T06:33:32;102693.59;;;3.58;100.00
74329;BME280;62749;51.982;5.916;2023-11-22T06:36:18;102698.88;;;3.61;100.00
74329;BME280;62749;51.982;5.916;2023-11-22T06:38:49;102688.41;;;3.60;100.00
74329;BME280;62749;51.982;5.916;2023-11-22T06:41:18;102705.09;;;3.68;100.00
74329;BME280;62749;51.982;5.916;2023-11-22T06:43:48;102707.72;;;3.69;100.00
74329;BME280;62749;51.982;5.916;2023-11-22T06:46:22;102710.34;;;3.68;100.00
74329;BME280;62749;51.982;5.916;2023-11-22T06:48:59;102718.19;;;3.68;100.00
74329;BME280;62749;51.982;5.916;2023-11-22T06:51:30;102726.03;;;3.69;100.00
74329;BME280;62749;51.982;5.916;2023-11-22T06:54:12;102721.72;;;3.72;100.00
74329;BME280;62749;51.982;5.916;2023-11-22T06:56:57;102727.84;;;3.74;100.00
74329;BME280;62749;51.982;5.916;2023-11-22T07:02:40;102700.72;;;3.65;100.00
74329;BME280;62749;51.982;5.916;2023-11-22T07:05:15;102688.59;;;3.71;100.00
74329;BME280;62749;51.982;5.916;2023-11-22T07:08:00;102699.03;;;3.71;100.00
74329;BME280;62749;51.982;5.916;2023-11-22T07:10:42;102692.22;;;3.79;100.00
74329;BME280;62749;51.982;5.916;2023-11-22T07:13:24;102685.97;;;3.71;100.00
74329;BME280;62749;51.982;5.916;2023-11-22T07:16:02;102687.78;;;3.73;100.00
74329;BME280;62749;51.982;5.916;2023-11-22T07:18:54;102692.97;;;3.72;100.00
74329;BME280;62749;51.982;5.916;2023-11-22T07:21:39;102687.66;;;3.68;100.00
74329;BME280;62749;51.982;5.916;2023-11-22T07:24:15;102693.78;;;3.67;100.00
74329;BME280;62749;51.982;5.916;2023-11-22T07:26:51;102691.25;;;3.72;100.00
74329;BME280;62749;51.982;5.916;2023-11-22T07:32:32;102703.28;;;3.64;100.00
74329;BME280;62749;51.982;5.916;2023-11-22T07:35:11;102699.88;;;3.66;100.00
74329;BME280;62749;51.982;5.916;2023-11-22T07:43:55;102707.25;;;3.92;100.00
74329;BME280;62749;51.982;5.916;2023-11-22T07:52:49;102724.03;;;4.05;100.00
74329;BME280;62749;51.982;5.916;2023-11-22T07:55:43;102723.22;;;4.11;100.00
74329;BME280;62749;51.982;5.916;2023-11-22T08:01:52;102711.66;;;3.93;100.00
74329;BME280;62749;51.982;5.916;2023-11-22T08:04:24;102706.47;;;3.98;100.00
74329;BME280;62749;51.982;5.916;2023-11-22T08:07:11;102711.66;;;3.93;100.00
74329;BME280;62749;51.982;5.916;2023-11-22T08:10:04;102722.31;;;4.06;100.00
74329;BME280;62749;51.982;5.916;2023-11-22T08:12:51;102735.47;;;4.12;100.00
74329;BME280;62749;51.982;5.916;2023-11-22T08:15:26;102743.25;;;4.07;100.00
74329;BME280;62749;51.982;5.916;2023-11-22T08:18:24;102757.19;;;4.08;100.00
74329;BME280;62749;51.982;5.916;2023-11-22T08:20:55;102751.22;;;4.17;100.00
74329;BME280;62749;51.982;5.916;2023-11-22T08:23:54;102754.81;;;4.22;100.00
74329;BME280;62749;51.982;5.916;2023-11-22T08:26:27;102757.44;;;4.22;100.00
74329;BME280;62749;51.982;5.916;2023-11-22T08:29:04;102738.31;;;4.27;100.00
74329;BME280;62749;51.982;5.916;2023-11-22T08:31:36;102748.78;;;4.26;100.00
74329;BME280;62749;51.982;5.916;2023-11-22T08:34:14;102763.63;;;4.28;100.00
74329;BME280;62749;51.982;5.916;2023-11-22T08:36:44;102761.16;;;4.38;100.00
74329;BME280;62749;51.982;5.916;2023-11-22T08:39:21;102759.53;;;4.46;100.00
74329;BME280;62749;51.982;5.916;2023-11-22T08:44:57;102771.94;;;4.59;100.00
74329;BME280;62749;51.982;5.916;2023-11-22T08:47:27;102772.94;;;4.68;100.00
74329;BME280;62749;51.982;5.916;2023-11-22T08:50:21;102770.47;;;4.77;100.00
74329;BME280;62749;51.982;5.916;2023-11-22T08:59:32;102781.00;;;4.82;100.00
74329;BME280;62749;51.982;5.916;2023-11-22T09:02:07;102773.16;;;4.83;99.80
74329;BME280;62749;51.982;5.916;2023-11-22T09:04:57;102780.28;;;4.95;99.98
74329;BME280;62749;51.982;5.916;2023-11-22T09:07:42;102775.97;;;4.97;99.81
74329;BME280;62749;51.982;5.916;2023-11-22T09:10:17;102771.59;;;4.98;99.75
74329;BME280;62749;51.982;5.916;2023-11-22T09:12:58;102781.09;;;4.89;98.53
74329;BME280;62749;51.982;5.916;2023-11-22T09:21:56;102766.41;;;5.01;98.72
74329;BME280;62749;51.982;5.916;2023-11-22T09:27:54;102771.69;;;5.04;98.66
74329;BME280;62749;51.982;5.916;2023-11-22T09:30:48;102770.06;;;5.15;99.42
74329;BME280;62749;51.982;5.916;2023-11-22T09:36:25;102777.78;;;5.03;97.05
74329;BME280;62749;51.982;5.916;2023-11-22T09:38:57;102781.34;;;5.08;97.94
74329;BME280;62749;51.982;5.916;2023-11-22T09:44:50;102764.94;;;5.23;98.69
74329;BME280;62749;51.982;5.916;2023-11-22T09:50:53;102768.41;;;5.23;96.52
74329;BME280;62749;51.982;5.916;2023-11-22T10:00:13;102778.06;;;5.26;97.31
74329;BME280;62749;51.982;5.916;2023-11-22T10:03:07;102768.44;;;5.25;96.76
74329;BME280;62749;51.982;5.916;2023-11-22T10:05:39;102773.75;;;5.28;96.73
74329;BME280;62749;51.982;5.916;2023-11-22T10:08:17;102766.72;;;5.27;97.09
74329;BME280;62749;51.982;5.916;2023-11-22T10:11:02;102767.69;;;5.35;96.82
74329;BME280;62749;51.982;5.916;2023-11-22T10:13:42;102783.69;;;5.59;96.23
74329;BME280;62749;51.982;5.916;2023-11-22T10:16:34;102788.84;;;5.52;96.58
74329;BME280;62749;51.982;5.916;2023-11-22T10:22:26;102777.63;;;5.66;92.06
74329;BME280;62749;51.982;5.916;2023-11-22T10:25:09;102778.44;;;5.60;92.48
74329;BME280;62749;51.982;5.916;2023-11-22T10:28:01;102776.72;;;5.64;94.01
74329;BME280;62749;51.982;5.916;2023-11-22T10:30:47;102778.50;;;5.63;94.38
74329;BME280;62749;51.982;5.916;2023-11-22T10:40:02;102759.31;;;5.69;94.20
74329;BME280;62749;51.982;5.916;2023-11-22T10:42:40;102739.28;;;5.77;93.01
74329;BME280;62749;51.982;5.916;2023-11-22T10:45:12;102739.31;;;5.80;92.10
74329;BME280;62749;51.982;5.916;2023-11-22T10:47:47;102722.75;;;5.84;92.02
74329;BME280;62749;51.982;5.916;2023-11-22T10:53:45;102728.22;;;6.11;91.48
74329;BME280;62749;51.982;5.916;2023-11-22T10:56:23;102727.41;;;6.20;90.26
74329;BME280;62749;51.982;5.916;2023-11-22T10:59:12;102721.25;;;6.11;90.12
74329;BME280;62749;51.982;5.916;2023-11-22T11:01:45;102718.56;;;6.05;91.30
74329;BME280;62749;51.982;5.916;2023-11-22T11:07:50;102718.53;;;6.01;90.83
74329;BME280;62749;51.982;5.916;2023-11-22T11:10:44;102712.34;;;5.97;90.22
74329;BME280;62749;51.982;5.916;2023-11-22T11:13:24;102717.66;;;6.03;89.94
74329;BME280;62749;51.982;5.916;2023-11-22T11:16:11;102708.13;;;6.11;89.67
74329;BME280;62749;51.982;5.916;2023-11-22T11:22:21;102725.56;;;6.08;89.85
74329;BME280;62749;51.982;5.916;2023-11-22T11:25:00;102699.31;;;6.08;89.35
74329;BME280;62749;51.982;5.916;2023-11-22T11:30:48;102675.78;;;6.19;89.15
74329;BME280;62749;51.982;5.916;2023-11-22T11:33:32;102664.44;;;6.23;90.55
74329;BME280;62749;51.982;5.916;2023-11-22T11:36:24;102648.69;;;6.23;90.74
74329;BME280;62749;51.982;5.916;2023-11-22T11:45:12;102615.34;;;6.08;91.93
74329;BME280;62749;51.982;5.916;2023-11-22T11:47:45;102619.75;;;6.12;93.40
74329;BME280;62749;51.982;5.916;2023-11-22T11:50:20;102609.25;;;6.07;93.66
74329;BME280;62749;51.982;5.916;2023-11-22T11:52:55;102611.88;;;6.12;93.08
74329;BME280;62749;51.982;5.916;2023-11-22T11:55:48;102598.78;;;6.10;92.94
74329;BME280;62749;51.982;5.916;2023-11-22T11:58:49;102618.03;;;6.14;92.71
74329;BME280;62749;51.982;5.916;2023-11-22T12:01:28;102611.00;;;6.08;93.09
74329;BME280;62749;51.982;5.916;2023-11-22T12:04:19;102610.22;;;6.25;92.57
74329;BME280;62749;51.982;5.916;2023-11-22T12:06:54;102600.63;;;6.33;92.74
74329;BME280;62749;51.982;5.916;2023-11-22T12:09:44;102592.75;;;6.33;93.19
74329;BME280;62749;51.982;5.916;2023-11-22T12:12:22;102600.63;;;6.33;92.42
74329;BME280;62749;51.982;5.916;2023-11-22T12:18:12;102600.59;;;6.30;92.29
74329;BME280;62749;51.982;5.916;2023-11-22T12:24:05;102619.94;;;6.48;89.11
74329;BME280;62749;51.982;5.916;2023-11-22T12:26:50;102608.53;;;6.41;81.98
74329;BME280;62749;51.982;5.916;2023-11-22T12:29:23;102609.38;;;6.34;84.38
74329;BME280;62749;51.982;5.916;2023-11-22T12:32:00;102609.38;;;6.32;84.02
74329;BME280;62749;51.982;5.916;2023-11-22T12:34:43;102595.38;;;6.39;84.84
74329;BME280;62749;51.982;5.916;2023-11-22T12:37:15;102600.69;;;6.49;83.08
74329;BME280;62749;51.982;5.916;2023-11-22T12:39:54;102611.22;;;6.52;84.13
74329;BME280;62749;51.982;5.916;2023-11-22T12:42:28;102601.59;;;6.55;83.73
74329;BME280;62749;51.982;5.916;2023-11-22T12:45:17;102606.88;;;6.65;82.48
74329;BME280;62749;51.982;5.916;2023-11-22T12:50:47;102592.03;;;6.81;82.22
74329;BME280;62749;51.982;5.916;2023-11-22T12:53:27;102580.69;;;6.96;82.27
74329;BME280;62749;51.982;5.916;2023-11-22T12:56:22;102592.13;;;7.15;78.95
74329;BME280;62749;51.982;5.916;2023-11-22T12:59:02;102590.34;;;7.11;80.67
74329;BME280;62749;51.982;5.916;2023-11-22T13:01:38;102584.19;;;7.10;78.25
74329;BME280;62749;51.982;5.916;2023-11-22T13:04:21;102583.34;;;7.16;80.34
74329;BME280;62749;51.982;5.916;2023-11-22T13:07:13;102589.47;;;7.16;80.56
74329;BME280;62749;51.982;5.916;2023-11-22T13:16:09;102571.94;;;6.98;81.60
74329;BME280;62749;51.982;5.916;2023-11-22T13:22:06;102563.16;;;6.82;79.70
74329;BME280;62749;51.982;5.916;2023-11-22T13:24:48;102560.50;;;6.71;80.58
74329;BME280;62749;51.982;5.916;2023-11-22T13:27:28;102550.84;;;6.61;82.26
74329;BME280;62749;51.982;5.916;2023-11-22T13:30:06;102544.69;;;6.53;83.65
74329;BME280;62749;51.982;5.916;2023-11-22T13:32:57;102538.56;;;6.57;82.50
74329;BME280;62749;51.982;5.916;2023-11-22T13:35:33;102535.06;;;6.63;81.20
74329;BME280;62749;51.982;5.916;2023-11-22T13:41:31;102526.31;;;6.65;83.58
74329;BME280;62749;51.982;5.916;2023-11-22T13:44:18;102521.97;;;6.61;81.70
74329;BME280;62749;51.982;5.916;2023-11-22T13:46:47;102516.69;;;6.49;82.52
74329;BME280;62749;51.982;5.916;2023-11-22T13:49:42;102518.38;;;6.40;85.71
74329;BME280;62749;51.982;5.916;2023-11-22T13:52:22;102528.00;;;6.37;86.02
74329;BME280;62749;51.982;5.916;2023-11-22T13:54:59;102537.66;;;6.42;87.43
74329;BME280;62749;51.982;5.916;2023-11-22T14:01:03;102536.78;;;6.43;87.90
74329;BME280;62749;51.982;5.916;2023-11-22T14:03:45;102535.88;;;6.41;87.92
74329;BME280;62749;51.982;5.916;2023-11-22T14:06:18;102521.88;;;6.33;88.56
74329;BME280;62749;51.982;5.916;2023-11-22T14:08:48;102519.25;;;6.32;88.90
74329;BME280;62749;51.982;5.916;2023-11-22T14:11:31;102534.13;;;6.34;88.16
74329;BME280;62749;51.982;5.916;2023-11-22T14:14:11;102525.41;;;6.38;89.26
74329;BME280;62749;51.982;5.916;2023-11-22T14:16:41;102525.38;;;6.41;88.50
74329;BME280;62749;51.982;5.916;2023-11-22T14:19:41;102530.66;;;6.38;89.46
74329;BME280;62749;51.982;5.916;2023-11-22T14:22:20;102527.16;;;6.42;90.39
74329;BME280;62749;51.982;5.916;2023-11-22T14:24:57;102517.53;;;6.49;90.74
74329;BME280;62749;51.982;5.916;2023-11-22T14:27:50;102523.69;;;6.45;89.35
74329;BME280;62749;51.982;5.916;2023-11-22T14:30:36;102518.44;;;6.50;89.19
74329;BME280;62749;51.982;5.916;2023-11-22T14:33:30;102523.66;;;6.47;90.76
74329;BME280;62749;51.982;5.916;2023-11-22T14:36:09;102521.06;;;6.51;89.70
74329;BME280;62749;51.982;5.916;2023-11-22T14:42:05;102508.78;;;6.47;90.42
74329;BME280;62749;51.982;5.916;2023-11-22T14:44:43;102504.41;;;6.38;90.25
74329;BME280;62749;51.982;5.916;2023-11-22T14:47:15;102496.50;;;6.41;91.54
74329;BME280;62749;51.982;5.916;2023-11-22T14:53:19;102498.25;;;6.35;92.72
74329;BME280;62749;51.982;5.916;2023-11-22T14:56:04;102500.88;;;6.32;94.14
74329;BME280;62749;51.982;5.916;2023-11-22T14:58:38;102507.00;;;6.35;94.14
74329;BME280;62749;51.982;5.916;2023-11-22T15:01:16;102495.63;;;6.36;94.00
74329;BME280;62749;51.982;5.916;2023-11-22T15:03:50;102496.53;;;6.40;93.19
74329;BME280;62749;51.982;5.916;2023-11-22T15:06:37;102494.75;;;6.39;93.08
74329;BME280;62749;51.982;5.916;2023-11-22T15:09:06;102500.03;;;6.37;93.09
74329;BME280;62749;51.982;5.916;2023-11-22T15:14:50;102498.25;;;6.36;93.27
74329;BME280;62749;51.982;5.916;2023-11-22T15:17:31;102494.75;;;6.36;94.98
74329;BME280;62749;51.982;5.916;2023-11-22T15:20:04;102481.66;;;6.37;95.60
74329;BME280;62749;51.982;5.916;2023-11-22T15:22:50;102485.97;;;6.29;96.06
74329;BME280;62749;51.982;5.916;2023-11-22T15:28:22;102499.13;;;6.35;97.78
74329;BME280;62749;51.982;5.916;2023-11-22T15:30:56;102507.88;;;6.40;96.90
74329;BME280;62749;51.982;5.916;2023-11-22T15:36:52;102519.22;;;6.30;97.25
74329;BME280;62749;51.982;5.916;2023-11-22T15:42:32;102526.19;;;6.14;96.40
74329;BME280;62749;51.982;5.916;2023-11-22T15:45:14;102499.91;;;6.05;97.70
74329;BME280;62749;51.982;5.916;2023-11-22T15:51:08;102476.25;;;6.03;99.74
74329;BME280;62749;51.982;5.916;2023-11-22T15:53:55;102473.59;;;5.97;100.00
74329;BME280;62749;51.982;5.916;2023-11-22T15:56:30;102475.31;;;5.96;99.82
74329;BME280;62749;51.982;5.916;2023-11-22T15:59:04;102478.81;;;5.94;99.48
74329;BME280;62749;51.982;5.916;2023-11-22T16:01:50;102493.69;;;5.92;98.54
74329;BME280;62749;51.982;5.916;2023-11-22T16:07:23;102491.03;;;5.86;97.56
74329;BME280;62749;51.982;5.916;2023-11-22T16:10:17;102482.25;;;5.82;98.43
74329;BME280;62749;51.982;5.916;2023-11-22T16:16:13;102466.53;;;5.85;96.89
74329;BME280;62749;51.982;5.916;2023-11-22T16:19:09;102458.63;;;5.74;98.13
74329;BME280;62749;51.982;5.916;2023-11-22T16:21:48;102438.53;;;5.78;98.04
74329;BME280;62749;51.982;5.916;2023-11-22T16:27:49;102432.31;;;5.62;98.43
74329;BME280;62749;51.982;5.916;2023-11-22T16:30:22;102418.41;;;5.67;98.79
74329;BME280;62749;51.982;5.916;2023-11-22T16:32:52;102412.25;;;5.64;98.30
74329;BME280;62749;51.982;5.916;2023-11-22T16:35:23;102418.41;;;5.72;98.89
74329;BME280;62749;51.982;5.916;2023-11-22T16:38:03;102423.66;;;5.72;98.90
74329;BME280;62749;51.982;5.916;2023-11-22T16:40:44;102419.31;;;5.74;98.72
74329;BME280;62749;51.982;5.916;2023-11-22T16:43:39;102418.41;;;5.75;97.53
74329;BME280;62749;51.982;5.916;2023-11-22T16:46:08;102426.31;;;5.80;97.20
74329;BME280;62749;51.982;5.916;2023-11-22T16:58:31;102415.81;;;5.81;96.83
74329;BME280;62749;51.982;5.916;2023-11-22T17:01:05;102411.44;;;5.77;97.12
74329;BME280;62749;51.982;5.916;2023-11-22T17:03:44;102423.63;;;5.71;96.48
74329;BME280;62749;51.982;5.916;2023-11-22T17:06:18;102418.41;;;5.69;98.16
74329;BME280;62749;51.982;5.916;2023-11-22T17:09:03;102406.22;;;5.85;97.60
74329;BME280;62749;51.982;5.916;2023-11-22T17:11:58;102421.06;;;5.88;97.18
74329;BME280;62749;51.982;5.916;2023-11-22T17:14:28;102407.09;;;5.89;96.87
74329;BME280;62749;51.982;5.916;2023-11-22T17:17:03;102400.97;;;5.90;96.35
74329;BME280;62749;51.982;5.916;2023-11-22T17:19:45;102402.72;;;5.91;95.91
74329;BME280;62749;51.982;5.916;2023-11-22T17:22:19;102393.13;;;5.87;96.05
74329;BME280;62749;51.982;5.916;2023-11-22T17:25:00;102390.47;;;5.90;96.20
74329;BME280;62749;51.982;5.916;2023-11-22T17:27:41;102390.47;;;5.83;96.07
74329;BME280;62749;51.982;5.916;2023-11-22T17:30:27;102395.69;;;5.77;95.90
74329;BME280;62749;51.982;5.916;2023-11-22T17:33:00;102386.06;;;5.73;95.99
74329;BME280;62749;51.982;5.916;2023-11-22T17:35:45;102387.84;;;5.74;96.55
74329;BME280;62749;51.982;5.916;2023-11-22T17:38:17;102382.56;;;5.77;96.99
74329;BME280;62749;51.982;5.916;2023-11-22T17:44:12;102386.97;;;5.88;96.91
74329;BME280;62749;51.982;5.916;2023-11-22T17:50:04;102383.47;;;5.84;97.58
74329;BME280;62749;51.982;5.916;2023-11-22T17:52:57;102380.00;;;5.88;95.81
74329;BME280;62749;51.982;5.916;2023-11-22T17:55:37;102364.28;;;5.87;95.94
74329;BME280;62749;51.982;5.916;2023-11-22T18:01:31;102380.84;;;5.73;95.79
74329;BME280;62749;51.982;5.916;2023-11-22T18:04:26;102376.50;;;5.80;96.05